sensor_id;sensor_type;location;lat;lon;timestamp;temperature;humidity
25342;DHT22;13298;48.792;9.154;2024-01-30T00:01:53;4.50;99.90
25342;DHT22;13298;48.792;9.154;2024-01-30T00:04:19;4.50;99.90
25342;DHT22;13298;48.792;9.154;2024-01-30T00:06:45;4.50;99.90
25342;DHT22;13298;48.792;9.154;2024-01-30T00:09:11;4.50;99.90
25342;DHT22;13298;48.792;9.154;2024-01-30T00:11:37;4.50;99.90
25342;DHT22;13298;48.792;9.154;2024-01-30T00:14:04;4.50;99.90
25342;DHT22;13298;48.792;9.154;2024-01-30T00:16:30;4.50;99.90
25342;DHT22;13298;48.792;9.154;2024-01-30T00:18:55;4.50;99.90
25342;DHT22;13298;48.792;9.154;2024-01-30T00:21:21;4.50;99.90
25342;DHT22;13298;48.792;9.154;2024-01-30T00:23:47;4.40;99.90
25342;DHT22;13298;48.792;9.154;2024-01-30T00:26:13;4.40;99.90
25342;DHT22;13298;48.792;9.154;2024-01-30T00:28:40;4.30;99.90
25342;DHT22;13298;48.792;9.154;2024-01-30T00:31:06;4.20;99.90
25342;DHT22;13298;48.792;9.154;2024-01-30T00:33:32;4.20;99.90
25342;DHT22;13298;48.792;9.154;2024-01-30T00:35:58;4.10;99.90
25342;DHT22;13298;48.792;9.154;2024-01-30T00:38:23;4.10;99.90
25342;DHT22;13298;48.792;9.154;2024-01-30T00:40:49;4.10;99.90
25342;DHT22;13298;48.792;9.154;2024-01-30T00:43:15;4.10;99.90
25342;DHT22;13298;48.792;9.154;2024-01-30T00:45:43;4.10;99.90
25342;DHT22;13298;48.792;9.154;2024-01-30T00:48:09;4.10;99.90
25342;DHT22;13298;48.792;9.154;2024-01-30T00:50:35;4.10;99.90
25342;DHT22;13298;48.792;9.154;2024-01-30T00:53:01;4.20;99.90
25342;DHT22;13298;48.792;9.154;2024-01-30T00:55:26;4.20;99.90
25342;DHT22;13298;48.792;9.154;2024-01-30T00:57:52;4.20;99.90
25342;DHT22;13298;48.792;9.154;2024-01-30T01:00:18;4.20;99.90
25342;DHT22;13298;48.792;9.154;2024-01-30T01:02:44;4.30;99.90
25342;DHT22;13298;48.792;9.154;2024-01-30T01:05:10;4.30;99.90
25342;DHT22;13298;48.792;9.154;2024-01-30T01:07:35;4.30;99.90
25342;DHT22;13298;48.792;9.154;2024-01-30T01:10:04;4.30;99.90
25342;DHT22;13298;48.792;9.154;2024-01-30T01:12:30;4.30;99.90
25342;DHT22;13298;48.792;9.154;2024-01-30T01:14:56;4.30;99.90
25342;DHT22;13298;48.792;9.154;2024-01-30T01:17:22;4.30;99.90
25342;DHT22;13298;48.792;9.154;2024-01-30T01:19:47;4.30;99.90
25342;DHT22;13298;48.792;9.154;2024-01-30T01:22:13;4.40;99.90
25342;DHT22;13298;48.792;9.154;2024-01-30T01:24:39;4.40;99.90
25342;DHT22;13298;48.792;9.154;2024-01-30T01:27:05;4.40;99.90
25342;DHT22;13298;48.792;9.154;2024-01-30T01:29:31;4.40;99.90
25342;DHT22;13298;48.792;9.154;2024-01-30T01:31:57;4.40;99.90
25342;DHT22;13298;48.792;9.154;2024-01-30T01:34:24;4.30;99.90
25342;DHT22;13298;48.792;9.154;2024-01-30T01:36:50;4.30;99.90
25342;DHT22;13298;48.792;9.154;2024-01-30T01:39:17;4.30;99.90
25342;DHT22;13298;48.792;9.154;2024-01-30T01:41:43;4.30;99.90
25342;DHT22;13298;48.792;9.154;2024-01-30T01:44:09;4.30;99.90
25342;DHT22;13298;48.792;9.154;2024-01-30T01:46:35;4.20;99.90
25342;DHT22;13298;48.792;9.154;2024-01-30T01:49:02;4.20;99.90
25342;DHT22;13298;48.792;9.154;2024-01-30T01:51:32;4.20;99.90
25342;DHT22;13298;48.792;9.154;2024-01-30T01:54:03;4.10;99.90
25342;DHT22;13298;48.792;9.154;2024-01-30T01:56:30;4.10;99.90
25342;DHT22;13298;48.792;9.154;2024-01-30T01:59:00;4.10;99.90
25342;DHT22;13298;48.792;9.154;2024-01-30T02:01:29;4.10;99.90
25342;DHT22;13298;48.792;9.154;2024-01-30T02:03:55;4.10;99.90
25342;DHT22;13298;48.792;9.154;2024-01-30T02:06:21;4.10;99.90
25342;DHT22;13298;48.792;9.154;2024-01-30T02:08:47;4.10;99.90
25342;DHT22;13298;48.792;9.154;2024-01-30T02:11:13;4.10;99.90
25342;DHT22;13298;48.792;9.154;2024-01-30T02:13:39;4.10;99.90
25342;DHT22;13298;48.792;9.154;2024-01-30T02:16:06;4.10;99.90
25342;DHT22;13298;48.792;9.154;2024-01-30T02:18:31;4.10;99.90
25342;DHT22;13298;48.792;9.154;2024-01-30T02:20:58;4.00;99.90
25342;DHT22;13298;48.792;9.154;2024-01-30T02:23:27;4.00;99.90
25342;DHT22;13298;48.792;9.154;2024-01-30T02:25:53;4.10;99.90
25342;DHT22;13298;48.792;9.154;2024-01-30T02:28:19;4.10;99.90
25342;DHT22;13298;48.792;9.154;2024-01-30T02:30:46;4.00;99.90
25342;DHT22;13298;48.792;9.154;2024-01-30T02:33:12;4.00;99.90
25342;DHT22;13298;48.792;9.154;2024-01-30T02:35:38;4.00;99.90
25342;DHT22;13298;48.792;9.154;2024-01-30T02:38:04;3.90;99.90
25342;DHT22;13298;48.792;9.154;2024-01-30T02:40:31;3.90;99.90
25342;DHT22;13298;48.792;9.154;2024-01-30T02:42:58;3.90;99.90
25342;DHT22;13298;48.792;9.154;2024-01-30T02:45:25;3.90;99.90
25342;DHT22;13298;48.792;9.154;2024-01-30T02:47:51;3.80;99.90
25342;DHT22;13298;48.792;9.154;2024-01-30T02:50:17;3.80;99.90
25342;DHT22;13298;48.792;9.154;2024-01-30T02:52:43;3.80;99.90
25342;DHT22;13298;48.792;9.154;2024-01-30T02:55:11;3.80;99.90
25342;DHT22;13298;48.792;9.154;2024-01-30T02:57:38;3.80;99.90
25342;DHT22;13298;48.792;9.154;2024-01-30T03:00:05;3.80;99.90
25342;DHT22;13298;48.792;9.154;2024-01-30T03:02:32;3.80;99.90
25342;DHT22;13298;48.792;9.154;2024-01-30T03:04:59;3.80;99.90
25342;DHT22;13298;48.792;9.154;2024-01-30T03:07:25;3.70;99.90
25342;DHT22;13298;48.792;9.154;2024-01-30T03:09:50;3.70;99.90
25342;DHT22;13298;48.792;9.154;2024-01-30T03:12:16;3.70;99.90
25342;DHT22;13298;48.792;9.154;2024-01-30T03:14:42;3.70;99.90
25342;DHT22;13298;48.792;9.154;2024-01-30T03:17:08;3.70;99.90
25342;DHT22;13298;48.792;9.154;2024-01-30T03:19:33;3.60;99.90
25342;DHT22;13298;48.792;9.154;2024-01-30T03:21:59;3.60;99.90
25342;DHT22;13298;48.792;9.154;2024-01-30T03:24:25;3.60;99.90
25342;DHT22;13298;48.792;9.154;2024-01-30T03:26:51;3.60;99.90
25342;DHT22;13298;48.792;9.154;2024-01-30T03:29:17;3.60;99.90
25342;DHT22;13298;48.792;9.154;2024-01-30T03:31:42;3.60;99.90
25342;DHT22;13298;48.792;9.154;2024-01-30T03:34:08;3.50;99.90
25342;DHT22;13298;48.792;9.154;2024-01-30T03:36:34;3.50;99.90
25342;DHT22;13298;48.792;9.154;2024-01-30T03:39:00;3.50;99.90
25342;DHT22;13298;48.792;9.154;2024-01-30T03:41:26;3.50;99.90
25342;DHT22;13298;48.792;9.154;2024-01-30T03:43:52;3.40;99.90
25342;DHT22;13298;48.792;9.154;2024-01-30T03:46:17;3.40;99.90
25342;DHT22;13298;48.792;9.154;2024-01-30T03:48:44;3.30;99.90
25342;DHT22;13298;48.792;9.154;2024-01-30T03:51:10;3.40;99.90
25342;DHT22;13298;48.792;9.154;2024-01-30T03:53:43;3.30;99.90
25342;DHT22;13298;48.792;9.154;2024-01-30T03:56:09;3.30;99.90
25342;DHT22;13298;48.792;9.154;2024-01-30T03:58:35;3.30;99.90
25342;DHT22;13298;48.792;9.154;2024-01-30T04:01:02;3.30;99.90
25342;DHT22;13298;48.792;9.154;2024-01-30T04:03:27;3.20;99.90
25342;DHT22;13298;48.792;9.154;2024-01-30T04:05:53;3.20;99.90
25342;DHT22;13298;48.792;9.154;2024-01-30T04:08:19;3.20;99.90
25342;DHT22;13298;48.792;9.154;2024-01-30T04:10:46;3.20;99.90
25342;DHT22;13298;48.792;9.154;2024-01-30T04:13:12;3.20;99.90
25342;DHT22;13298;48.792;9.154;2024-01-30T04:15:39;3.20;99.90
25342;DHT22;13298;48.792;9.154;2024-01-30T04:18:05;3.20;99.90
25342;DHT22;13298;48.792;9.154;2024-01-30T04:20:30;3.20;99.90
25342;DHT22;13298;48.792;9.154;2024-01-30T04:22:56;3.20;99.90
25342;DHT22;13298;48.792;9.154;2024-01-30T04:25:22;3.20;99.90
25342;DHT22;13298;48.792;9.154;2024-01-30T04:27:48;3.20;99.90
25342;DHT22;13298;48.792;9.154;2024-01-30T04:30:14;3.20;99.90
25342;DHT22;13298;48.792;9.154;2024-01-30T04:32:40;3.20;99.90
25342;DHT22;13298;48.792;9.154;2024-01-30T04:35:06;3.20;99.90
25342;DHT22;13298;48.792;9.154;2024-01-30T04:37:32;3.20;99.90
25342;DHT22;13298;48.792;9.154;2024-01-30T04:39:57;3.10;99.90
25342;DHT22;13298;48.792;9.154;2024-01-30T04:42:23;3.10;99.90
25342;DHT22;13298;48.792;9.154;2024-01-30T04:44:49;3.00;99.90
25342;DHT22;13298;48.792;9.154;2024-01-30T04:47:15;3.00;99.90
25342;DHT22;13298;48.792;9.154;2024-01-30T04:49:41;3.00;99.90
25342;DHT22;13298;48.792;9.154;2024-01-30T04:52:07;3.00;99.90
25342;DHT22;13298;48.792;9.154;2024-01-30T04:54:34;3.00;99.90
25342;DHT22;13298;48.792;9.154;2024-01-30T04:57:01;3.00;99.90
25342;DHT22;13298;48.792;9.154;2024-01-30T04:59:27;3.00;99.90
25342;DHT22;13298;48.792;9.154;2024-01-30T05:01:53;3.10;99.90
25342;DHT22;13298;48.792;9.154;2024-01-30T05:04:18;3.10;99.90
25342;DHT22;13298;48.792;9.154;2024-01-30T05:06:44;3.10;99.90
25342;DHT22;13298;48.792;9.154;2024-01-30T05:09:10;3.10;99.90
25342;DHT22;13298;48.792;9.154;2024-01-30T05:11:39;3.10;99.90
25342;DHT22;13298;48.792;9.154;2024-01-30T05:14:06;3.10;99.90
25342;DHT22;13298;48.792;9.154;2024-01-30T05:16:32;3.00;99.90
25342;DHT22;13298;48.792;9.154;2024-01-30T05:18:58;3.00;99.90
25342;DHT22;13298;48.792;9.154;2024-01-30T05:21:24;2.90;99.90
25342;DHT22;13298;48.792;9.154;2024-01-30T05:23:50;2.90;99.90
25342;DHT22;13298;48.792;9.154;2024-01-30T05:26:15;2.80;99.90
25342;DHT22;13298;48.792;9.154;2024-01-30T05:28:41;2.80;99.90
25342;DHT22;13298;48.792;9.154;2024-01-30T05:31:08;2.80;99.90
25342;DHT22;13298;48.792;9.154;2024-01-30T05:33:33;2.80;99.90
25342;DHT22;13298;48.792;9.154;2024-01-30T05:35:59;2.80;99.90
25342;DHT22;13298;48.792;9.154;2024-01-30T05:38:25;2.90;99.90
25342;DHT22;13298;48.792;9.154;2024-01-30T05:40:50;2.90;99.90
25342;DHT22;13298;48.792;9.154;2024-01-30T05:43:16;2.90;99.90
25342;DHT22;13298;48.792;9.154;2024-01-30T05:45:42;2.90;99.90
25342;DHT22;13298;48.792;9.154;2024-01-30T05:48:07;2.90;99.90
25342;DHT22;13298;48.792;9.154;2024-01-30T05:50:33;2.90;99.90
25342;DHT22;13298;48.792;9.154;2024-01-30T05:52:59;2.90;99.90
25342;DHT22;13298;48.792;9.154;2024-01-30T05:55:24;2.90;99.90
25342;DHT22;13298;48.792;9.154;2024-01-30T05:57:50;2.90;99.90
25342;DHT22;13298;48.792;9.154;2024-01-30T06:00:17;2.90;99.90
25342;DHT22;13298;48.792;9.154;2024-01-30T06:02:43;2.80;99.90
25342;DHT22;13298;48.792;9.154;2024-01-30T06:05:09;2.80;99.90
25342;DHT22;13298;48.792;9.154;2024-01-30T06:07:35;2.80;99.90
25342;DHT22;13298;48.792;9.154;2024-01-30T06:10:00;2.80;99.90
25342;DHT22;13298;48.792;9.154;2024-01-30T06:12:27;2.70;99.90
25342;DHT22;13298;48.792;9.154;2024-01-30T06:14:53;2.70;99.90
25342;DHT22;13298;48.792;9.154;2024-01-30T06:17:22;2.70;99.90
25342;DHT22;13298;48.792;9.154;2024-01-30T06:19:48;2.70;99.90
25342;DHT22;13298;48.792;9.154;2024-01-30T06:22:13;2.70;99.90
25342;DHT22;13298;48.792;9.154;2024-01-30T06:24:39;2.70;99.90
25342;DHT22;13298;48.792;9.154;2024-01-30T06:27:05;2.70;99.90
25342;DHT22;13298;48.792;9.154;2024-01-30T06:29:30;2.70;99.90
25342;DHT22;13298;48.792;9.154;2024-01-30T06:31:56;2.70;99.90
25342;DHT22;13298;48.792;9.154;2024-01-30T06:34:22;2.70;99.90
25342;DHT22;13298;48.792;9.154;2024-01-30T06:36:48;2.70;99.90
25342;DHT22;13298;48.792;9.154;2024-01-30T06:39:13;2.70;99.90
25342;DHT22;13298;48.792;9.154;2024-01-30T06:41:39;2.70;99.90
25342;DHT22;13298;48.792;9.154;2024-01-30T06:44:05;2.70;99.90
25342;DHT22;13298;48.792;9.154;2024-01-30T06:46:32;2.70;99.90
25342;DHT22;13298;48.792;9.154;2024-01-30T06:48:59;2.70;99.90
25342;DHT22;13298;48.792;9.154;2024-01-30T06:51:25;2.70;99.90
25342;DHT22;13298;48.792;9.154;2024-01-30T06:53:50;2.70;99.90
25342;DHT22;13298;48.792;9.154;2024-01-30T06:56:16;2.80;99.90
25342;DHT22;13298;48.792;9.154;2024-01-30T06:58:47;2.80;99.90
25342;DHT22;13298;48.792;9.154;2024-01-30T07:01:13;2.90;99.90
25342;DHT22;13298;48.792;9.154;2024-01-30T07:03:39;2.90;99.90
25342;DHT22;13298;48.792;9.154;2024-01-30T07:06:05;2.90;99.90
25342;DHT22;13298;48.792;9.154;2024-01-30T07:08:31;2.90;99.90
25342;DHT22;13298;48.792;9.154;2024-01-30T07:10:57;3.00;99.90
25342;DHT22;13298;48.792;9.154;2024-01-30T07:13:22;3.00;99.90
25342;DHT22;13298;48.792;9.154;2024-01-30T07:15:48;3.10;99.90
25342;DHT22;13298;48.792;9.154;2024-01-30T07:18:14;3.10;99.90
25342;DHT22;13298;48.792;9.154;2024-01-30T07:20:39;3.10;99.90
25342;DHT22;13298;48.792;9.154;2024-01-30T07:23:12;3.20;99.90
25342;DHT22;13298;48.792;9.154;2024-01-30T07:25:40;3.20;99.90
25342;DHT22;13298;48.792;9.154;2024-01-30T07:28:07;3.20;99.90
25342;DHT22;13298;48.792;9.154;2024-01-30T07:30:35;3.30;99.90
25342;DHT22;13298;48.792;9.154;2024-01-30T07:33:00;3.30;99.90
25342;DHT22;13298;48.792;9.154;2024-01-30T07:35:26;3.40;99.90
25342;DHT22;13298;48.792;9.154;2024-01-30T07:37:52;3.40;99.90
25342;DHT22;13298;48.792;9.154;2024-01-30T07:40:17;3.50;99.90
25342;DHT22;13298;48.792;9.154;2024-01-30T07:42:43;3.50;99.90
25342;DHT22;13298;48.792;9.154;2024-01-30T07:45:09;3.60;99.90
25342;DHT22;13298;48.792;9.154;2024-01-30T07:47:35;3.60;99.90
25342;DHT22;13298;48.792;9.154;2024-01-30T07:50:01;3.70;99.90
25342;DHT22;13298;48.792;9.154;2024-01-30T07:52:26;3.70;99.90
25342;DHT22;13298;48.792;9.154;2024-01-30T07:54:52;3.80;99.90
25342;DHT22;13298;48.792;9.154;2024-01-30T07:57:18;3.80;99.90
25342;DHT22;13298;48.792;9.154;2024-01-30T07:59:44;3.90;99.90
25342;DHT22;13298;48.792;9.154;2024-01-30T08:02:11;4.00;99.90
25342;DHT22;13298;48.792;9.154;2024-01-30T08:04:40;4.00;99.90
25342;DHT22;13298;48.792;9.154;2024-01-30T08:07:06;4.10;99.90
25342;DHT22;13298;48.792;9.154;2024-01-30T08:09:31;4.20;99.90
25342;DHT22;13298;48.792;9.154;2024-01-30T08:11:57;4.30;99.90
25342;DHT22;13298;48.792;9.154;2024-01-30T08:14:23;4.40;99.90
25342;DHT22;13298;48.792;9.154;2024-01-30T08:16:48;4.40;99.90
25342;DHT22;13298;48.792;9.154;2024-01-30T08:19:15;4.60;99.90
25342;DHT22;13298;48.792;9.154;2024-01-30T08:21:41;4.70;99.90
25342;DHT22;13298;48.792;9.154;2024-01-30T08:24:07;4.80;99.90
25342;DHT22;13298;48.792;9.154;2024-01-30T08:26:33;5.00;99.90
25342;DHT22;13298;48.792;9.154;2024-01-30T08:28:59;5.10;99.90
25342;DHT22;13298;48.792;9.154;2024-01-30T08:31:25;5.30;99.90
25342;DHT22;13298;48.792;9.154;2024-01-30T08:33:51;5.40;99.90
25342;DHT22;13298;48.792;9.154;2024-01-30T08:36:17;5.50;99.90
25342;DHT22;13298;48.792;9.154;2024-01-30T08:38:43;5.60;99.90
25342;DHT22;13298;48.792;9.154;2024-01-30T08:41:09;5.80;99.90
25342;DHT22;13298;48.792;9.154;2024-01-30T08:43:35;5.80;99.90
25342;DHT22;13298;48.792;9.154;2024-01-30T08:46:01;5.90;99.90
25342;DHT22;13298;48.792;9.154;2024-01-30T08:48:27;6.00;99.90
25342;DHT22;13298;48.792;9.154;2024-01-30T08:50:53;6.10;99.90
25342;DHT22;13298;48.792;9.154;2024-01-30T08:53:19;6.10;99.90
25342;DHT22;13298;48.792;9.154;2024-01-30T08:55:45;6.20;99.90
25342;DHT22;13298;48.792;9.154;2024-01-30T08:58:11;6.30;99.90
25342;DHT22;13298;48.792;9.154;2024-01-30T09:00:36;6.30;99.90
25342;DHT22;13298;48.792;9.154;2024-01-30T09:03:03;6.40;99.90
25342;DHT22;13298;48.792;9.154;2024-01-30T09:05:29;6.40;99.90
25342;DHT22;13298;48.792;9.154;2024-01-30T09:07:55;6.50;99.90
25342;DHT22;13298;48.792;9.154;2024-01-30T09:10:20;6.50;99.90
25342;DHT22;13298;48.792;9.154;2024-01-30T09:12:47;6.60;99.90
25342;DHT22;13298;48.792;9.154;2024-01-30T09:15:12;6.70;99.90
25342;DHT22;13298;48.792;9.154;2024-01-30T09:17:38;6.80;99.90
25342;DHT22;13298;48.792;9.154;2024-01-30T09:20:05;6.90;99.90
25342;DHT22;13298;48.792;9.154;2024-01-30T09:22:31;7.00;99.90
25342;DHT22;13298;48.792;9.154;2024-01-30T09:24:57;7.10;99.90
25342;DHT22;13298;48.792;9.154;2024-01-30T09:27:23;7.20;99.90
25342;DHT22;13298;48.792;9.154;2024-01-30T09:29:48;7.30;99.90
25342;DHT22;13298;48.792;9.154;2024-01-30T09:32:14;7.30;99.90
25342;DHT22;13298;48.792;9.154;2024-01-30T09:34:40;7.40;99.90
25342;DHT22;13298;48.792;9.154;2024-01-30T09:37:07;7.60;99.90
25342;DHT22;13298;48.792;9.154;2024-01-30T09:39:32;7.70;99.90
25342;DHT22;13298;48.792;9.154;2024-01-30T09:42:17;7.90;99.90
25342;DHT22;13298;48.792;9.154;2024-01-30T09:44:47;8.00;99.90
25342;DHT22;13298;48.792;9.154;2024-01-30T09:47:16;8.10;99.90
25342;DHT22;13298;48.792;9.154;2024-01-30T09:49:43;8.20;99.90
25342;DHT22;13298;48.792;9.154;2024-01-30T09:52:09;8.30;99.90
25342;DHT22;13298;48.792;9.154;2024-01-30T09:54:36;8.40;99.90
25342;DHT22;13298;48.792;9.154;2024-01-30T09:57:04;8.50;99.90
25342;DHT22;13298;48.792;9.154;2024-01-30T09:59:30;8.60;99.90
25342;DHT22;13298;48.792;9.154;2024-01-30T10:01:57;8.60;99.90
25342;DHT22;13298;48.792;9.154;2024-01-30T10:04:23;8.70;99.90
25342;DHT22;13298;48.792;9.154;2024-01-30T10:06:48;8.90;99.90
25342;DHT22;13298;48.792;9.154;2024-01-30T10:09:15;9.10;99.90
25342;DHT22;13298;48.792;9.154;2024-01-30T10:11:40;9.20;99.90
25342;DHT22;13298;48.792;9.154;2024-01-30T10:14:06;9.30;99.90
25342;DHT22;13298;48.792;9.154;2024-01-30T10:16:32;9.40;99.90
25342;DHT22;13298;48.792;9.154;2024-01-30T10:18:58;9.40;99.90
25342;DHT22;13298;48.792;9.154;2024-01-30T10:21:23;9.40;99.90
25342;DHT22;13298;48.792;9.154;2024-01-30T10:23:50;9.50;99.90
25342;DHT22;13298;48.792;9.154;2024-01-30T10:26:16;9.60;99.90
25342;DHT22;13298;48.792;9.154;2024-01-30T10:28:43;9.60;99.90
25342;DHT22;13298;48.792;9.154;2024-01-30T10:31:08;9.70;99.90
25342;DHT22;13298;48.792;9.154;2024-01-30T10:33:34;9.70;99.90
25342;DHT22;13298;48.792;9.154;2024-01-30T10:36:01;9.90;99.90
25342;DHT22;13298;48.792;9.154;2024-01-30T10:38:29;10.00;99.90
25342;DHT22;13298;48.792;9.154;2024-01-30T10:41:02;10.10;99.90
25342;DHT22;13298;48.792;9.154;2024-01-30T10:43:32;10.10;99.90
25342;DHT22;13298;48.792;9.154;2024-01-30T10:48:50;10.40;99.90
25342;DHT22;13298;48.792;9.154;2024-01-30T10:51:18;10.40;99.90
25342;DHT22;13298;48.792;9.154;2024-01-30T10:53:46;10.50;99.90
25342;DHT22;13298;48.792;9.154;2024-01-30T10:56:13;10.60;99.90
25342;DHT22;13298;48.792;9.154;2024-01-30T10:58:39;10.70;99.90
25342;DHT22;13298;48.792;9.154;2024-01-30T11:01:06;10.70;99.90
25342;DHT22;13298;48.792;9.154;2024-01-30T11:03:33;10.80;99.90
25342;DHT22;13298;48.792;9.154;2024-01-30T11:06:02;10.90;99.90
25342;DHT22;13298;48.792;9.154;2024-01-30T11:08:28;11.00;99.90
25342;DHT22;13298;48.792;9.154;2024-01-30T11:10:58;11.10;99.90
25342;DHT22;13298;48.792;9.154;2024-01-30T11:13:31;11.30;99.90
25342;DHT22;13298;48.792;9.154;2024-01-30T11:16:06;11.40;99.90
25342;DHT22;13298;48.792;9.154;2024-01-30T11:18:33;11.50;99.90
25342;DHT22;13298;48.792;9.154;2024-01-30T11:21:01;11.70;99.90
25342;DHT22;13298;48.792;9.154;2024-01-30T11:23:32;11.80;99.90
25342;DHT22;13298;48.792;9.154;2024-01-30T11:25:58;11.90;99.90
25342;DHT22;13298;48.792;9.154;2024-01-30T11:28:24;11.90;99.90
25342;DHT22;13298;48.792;9.154;2024-01-30T11:31:07;12.00;99.90
25342;DHT22;13298;48.792;9.154;2024-01-30T11:33:33;12.10;99.90
25342;DHT22;13298;48.792;9.154;2024-01-30T11:36:00;12.10;99.90
25342;DHT22;13298;48.792;9.154;2024-01-30T11:38:27;12.20;99.90
25342;DHT22;13298;48.792;9.154;2024-01-30T11:40:54;12.20;99.90
25342;DHT22;13298;48.792;9.154;2024-01-30T11:43:24;12.30;99.90
25342;DHT22;13298;48.792;9.154;2024-01-30T11:45:50;12.30;99.90
25342;DHT22;13298;48.792;9.154;2024-01-30T11:48:16;12.30;99.90
25342;DHT22;13298;48.792;9.154;2024-01-30T11:50:42;12.30;99.90
25342;DHT22;13298;48.792;9.154;2024-01-30T11:53:10;12.20;99.90
25342;DHT22;13298;48.792;9.154;2024-01-30T11:55:35;12.20;99.90
25342;DHT22;13298;48.792;9.154;2024-01-30T11:58:03;12.20;99.90
25342;DHT22;13298;48.792;9.154;2024-01-30T12:00:30;12.20;99.90
25342;DHT22;13298;48.792;9.154;2024-01-30T12:02:59;12.20;99.90
25342;DHT22;13298;48.792;9.154;2024-01-30T12:05:26;12.30;99.90
25342;DHT22;13298;48.792;9.154;2024-01-30T12:07:53;12.30;99.90
25342;DHT22;13298;48.792;9.154;2024-01-30T12:10:18;12.40;99.90
25342;DHT22;13298;48.792;9.154;2024-01-30T12:12:49;12.40;99.90
25342;DHT22;13298;48.792;9.154;2024-01-30T12:15:15;12.50;99.90
25342;DHT22;13298;48.792;9.154;2024-01-30T12:17:42;12.50;99.90
25342;DHT22;13298;48.792;9.154;2024-01-30T12:20:12;12.50;99.90
25342;DHT22;13298;48.792;9.154;2024-01-30T12:22:43;12.60;99.90
25342;DHT22;13298;48.792;9.154;2024-01-30T12:25:11;12.70;99.90
25342;DHT22;13298;48.792;9.154;2024-01-30T12:27:47;12.70;99.90
25342;DHT22;13298;48.792;9.154;2024-01-30T12:30:17;12.70;99.90
25342;DHT22;13298;48.792;9.154;2024-01-30T12:32:46;12.70;99.90
25342;DHT22;13298;48.792;9.154;2024-01-30T12:35:14;12.60;99.90
25342;DHT22;13298;48.792;9.154;2024-01-30T12:37:43;12.60;99.90
25342;DHT22;13298;48.792;9.154;2024-01-30T12:40:10;12.50;99.90
25342;DHT22;13298;48.792;9.154;2024-01-30T12:42:38;12.50;99.90
25342;DHT22;13298;48.792;9.154;2024-01-30T12:45:04;12.40;99.90
25342;DHT22;13298;48.792;9.154;2024-01-30T12:47:31;12.30;99.90
25342;DHT22;13298;48.792;9.154;2024-01-30T12:49:57;12.20;99.90
25342;DHT22;13298;48.792;9.154;2024-01-30T12:52:23;12.10;99.90
25342;DHT22;13298;48.792;9.154;2024-01-30T12:54:49;12.10;99.90
25342;DHT22;13298;48.792;9.154;2024-01-30T12:57:16;12.00;99.90
25342;DHT22;13298;48.792;9.154;2024-01-30T12:59:43;12.00;99.90
25342;DHT22;13298;48.792;9.154;2024-01-30T13:02:10;11.90;99.90
25342;DHT22;13298;48.792;9.154;2024-01-30T13:04:36;11.90;99.90
25342;DHT22;13298;48.792;9.154;2024-01-30T13:07:02;11.90;99.90
25342;DHT22;13298;48.792;9.154;2024-01-30T13:09:29;11.90;99.90
25342;DHT22;13298;48.792;9.154;2024-01-30T13:11:56;11.90;99.90
25342;DHT22;13298;48.792;9.154;2024-01-30T13:14:22;12.00;99.90
25342;DHT22;13298;48.792;9.154;2024-01-30T13:16:47;12.10;99.90
25342;DHT22;13298;48.792;9.154;2024-01-30T13:19:13;12.20;99.90
25342;DHT22;13298;48.792;9.154;2024-01-30T13:21:39;12.30;99.90
25342;DHT22;13298;48.792;9.154;2024-01-30T13:24:05;12.30;99.90
25342;DHT22;13298;48.792;9.154;2024-01-30T13:26:33;12.40;99.90
25342;DHT22;13298;48.792;9.154;2024-01-30T13:28:59;12.40;99.90
25342;DHT22;13298;48.792;9.154;2024-01-30T13:31:25;12.40;99.90
25342;DHT22;13298;48.792;9.154;2024-01-30T13:33:52;12.30;99.90
25342;DHT22;13298;48.792;9.154;2024-01-30T13:36:18;12.20;99.90
25342;DHT22;13298;48.792;9.154;2024-01-30T13:38:44;12.20;99.90
25342;DHT22;13298;48.792;9.154;2024-01-30T13:41:10;12.20;99.90
25342;DHT22;13298;48.792;9.154;2024-01-30T13:43:36;12.20;99.90
25342;DHT22;13298;48.792;9.154;2024-01-30T13:46:01;12.20;99.90
25342;DHT22;13298;48.792;9.154;2024-01-30T13:48:27;12.20;99.90
25342;DHT22;13298;48.792;9.154;2024-01-30T13:50:53;12.30;99.90
25342;DHT22;13298;48.792;9.154;2024-01-30T13:53:19;12.30;99.90
25342;DHT22;13298;48.792;9.154;2024-01-30T13:55:45;12.30;99.90
25342;DHT22;13298;48.792;9.154;2024-01-30T13:58:11;12.30;99.90
25342;DHT22;13298;48.792;9.154;2024-01-30T14:00:37;12.30;99.90
25342;DHT22;13298;48.792;9.154;2024-01-30T14:03:02;12.30;99.90
25342;DHT22;13298;48.792;9.154;2024-01-30T14:05:28;12.20;99.90
25342;DHT22;13298;48.792;9.154;2024-01-30T14:07:54;12.20;99.90
25342;DHT22;13298;48.792;9.154;2024-01-30T14:10:20;12.10;99.90
25342;DHT22;13298;48.792;9.154;2024-01-30T14:12:46;12.00;99.90
25342;DHT22;13298;48.792;9.154;2024-01-30T14:15:14;12.00;99.90
25342;DHT22;13298;48.792;9.154;2024-01-30T14:17:44;12.00;99.90
25342;DHT22;13298;48.792;9.154;2024-01-30T14:20:10;11.90;99.90
25342;DHT22;13298;48.792;9.154;2024-01-30T14:22:36;11.90;99.90
25342;DHT22;13298;48.792;9.154;2024-01-30T14:25:02;11.80;99.90
25342;DHT22;13298;48.792;9.154;2024-01-30T14:27:29;11.70;99.90
25342;DHT22;13298;48.792;9.154;2024-01-30T14:29:56;11.70;99.90
25342;DHT22;13298;48.792;9.154;2024-01-30T14:32:23;11.70;99.90
25342;DHT22;13298;48.792;9.154;2024-01-30T14:34:50;11.60;99.90
25342;DHT22;13298;48.792;9.154;2024-01-30T14:37:16;11.60;99.90
25342;DHT22;13298;48.792;9.154;2024-01-30T14:39:42;11.50;99.90
25342;DHT22;13298;48.792;9.154;2024-01-30T14:42:08;11.50;99.90
25342;DHT22;13298;48.792;9.154;2024-01-30T14:44:33;11.40;99.90
25342;DHT22;13298;48.792;9.154;2024-01-30T14:47:00;11.30;99.90
25342;DHT22;13298;48.792;9.154;2024-01-30T14:49:26;11.30;99.90
25342;DHT22;13298;48.792;9.154;2024-01-30T14:51:51;11.20;99.90
25342;DHT22;13298;48.792;9.154;2024-01-30T14:54:17;11.10;99.90
25342;DHT22;13298;48.792;9.154;2024-01-30T14:56:44;11.00;99.90
25342;DHT22;13298;48.792;9.154;2024-01-30T14:59:10;10.90;99.90
25342;DHT22;13298;48.792;9.154;2024-01-30T15:01:35;10.90;99.90
25342;DHT22;13298;48.792;9.154;2024-01-30T15:04:01;10.80;99.90
25342;DHT22;13298;48.792;9.154;2024-01-30T15:06:27;10.70;99.90
25342;DHT22;13298;48.792;9.154;2024-01-30T15:08:53;10.60;99.90
25342;DHT22;13298;48.792;9.154;2024-01-30T15:11:19;10.50;99.90
25342;DHT22;13298;48.792;9.154;2024-01-30T15:13:45;10.50;99.90
25342;DHT22;13298;48.792;9.154;2024-01-30T15:16:11;10.40;99.90
25342;DHT22;13298;48.792;9.154;2024-01-30T15:18:37;10.30;99.90
25342;DHT22;13298;48.792;9.154;2024-01-30T15:21:03;10.30;99.90
25342;DHT22;13298;48.792;9.154;2024-01-30T15:23:28;10.20;99.90
25342;DHT22;13298;48.792;9.154;2024-01-30T15:25:54;10.10;99.90
25342;DHT22;13298;48.792;9.154;2024-01-30T15:28:33;10.10;99.90
25342;DHT22;13298;48.792;9.154;2024-01-30T15:31:00;10.00;99.90
25342;DHT22;13298;48.792;9.154;2024-01-30T15:33:26;9.90;99.90
25342;DHT22;13298;48.792;9.154;2024-01-30T15:35:52;9.80;99.90
25342;DHT22;13298;48.792;9.154;2024-01-30T15:38:19;9.80;99.90
25342;DHT22;13298;48.792;9.154;2024-01-30T15:40:46;9.70;99.90